sensor_id;sensor_type;location;lat;lon;timestamp;temperature;humidity
44170;DHT22;29836;52.286;9.576;2023-02-15T00:01:45;2.80;99.90
44170;DHT22;29836;52.286;9.576;2023-02-15T00:04:13;2.80;99.90
44170;DHT22;29836;52.286;9.576;2023-02-15T00:06:39;2.60;99.90
44170;DHT22;29836;52.286;9.576;2023-02-15T00:09:05;2.70;99.90
44170;DHT22;29836;52.286;9.576;2023-02-15T00:11:31;2.80;99.90
44170;DHT22;29836;52.286;9.576;2023-02-15T00:14:31;2.90;99.90
44170;DHT22;29836;52.286;9.576;2023-02-15T00:16:57;3.00;99.90
44170;DHT22;29836;52.286;9.576;2023-02-15T00:19:25;3.10;99.90
44170;DHT22;29836;52.286;9.576;2023-02-15T00:21:50;3.20;99.90
44170;DHT22;29836;52.286;9.576;2023-02-15T00:24:18;3.40;99.90
44170;DHT22;29836;52.286;9.576;2023-02-15T00:26:44;3.70;99.90
44170;DHT22;29836;52.286;9.576;2023-02-15T00:29:11;3.80;99.90
44170;DHT22;29836;52.286;9.576;2023-02-15T00:31:37;3.80;99.90
44170;DHT22;29836;52.286;9.576;2023-02-15T00:34:09;3.60;99.90
44170;DHT22;29836;52.286;9.576;2023-02-15T00:36:35;3.40;99.90
44170;DHT22;29836;52.286;9.576;2023-02-15T00:39:01;3.10;99.90
44170;DHT22;29836;52.286;9.576;2023-02-15T00:41:27;2.70;99.90
44170;DHT22;29836;52.286;9.576;2023-02-15T00:43:52;2.40;99.90
44170;DHT22;29836;52.286;9.576;2023-02-15T00:46:18;2.40;99.90
44170;DHT22;29836;52.286;9.576;2023-02-15T00:48:43;2.60;99.90
44170;DHT22;29836;52.286;9.576;2023-02-15T00:51:09;2.60;99.90
44170;DHT22;29836;52.286;9.576;2023-02-15T00:53:34;2.40;99.90
44170;DHT22;29836;52.286;9.576;2023-02-15T00:56:00;2.20;99.90
44170;DHT22;29836;52.286;9.576;2023-02-15T00:58:25;2.10;99.90
44170;DHT22;29836;52.286;9.576;2023-02-15T01:00:51;2.20;99.90
44170;DHT22;29836;52.286;9.576;2023-02-15T01:03:18;2.40;99.90
44170;DHT22;29836;52.286;9.576;2023-02-15T01:05:43;2.50;99.90
44170;DHT22;29836;52.286;9.576;2023-02-15T01:08:09;2.30;99.90
44170;DHT22;29836;52.286;9.576;2023-02-15T01:10:35;2.10;99.90
44170;DHT22;29836;52.286;9.576;2023-02-15T01:13:01;2.00;99.90
44170;DHT22;29836;52.286;9.576;2023-02-15T01:15:27;1.80;99.90
44170;DHT22;29836;52.286;9.576;2023-02-15T01:17:52;1.80;99.90
44170;DHT22;29836;52.286;9.576;2023-02-15T01:20:29;1.60;99.90
44170;DHT22;29836;52.286;9.576;2023-02-15T01:22:57;1.50;99.90
44170;DHT22;29836;52.286;9.576;2023-02-15T01:25:23;1.30;99.90
44170;DHT22;29836;52.286;9.576;2023-02-15T01:27:49;1.20;99.90
44170;DHT22;29836;52.286;9.576;2023-02-15T01:30:15;1.20;99.90
44170;DHT22;29836;52.286;9.576;2023-02-15T01:32:42;1.30;99.90
44170;DHT22;29836;52.286;9.576;2023-02-15T01:35:09;1.20;99.90
44170;DHT22;29836;52.286;9.576;2023-02-15T01:37:35;1.30;99.90
44170;DHT22;29836;52.286;9.576;2023-02-15T01:40:05;1.50;99.90
44170;DHT22;29836;52.286;9.576;2023-02-15T01:42:31;1.50;99.90
44170;DHT22;29836;52.286;9.576;2023-02-15T01:45:00;1.50;99.90
44170;DHT22;29836;52.286;9.576;2023-02-15T01:47:39;1.60;99.90
44170;DHT22;29836;52.286;9.576;2023-02-15T01:52:40;1.30;99.90
44170;DHT22;29836;52.286;9.576;2023-02-15T01:55:09;1.40;99.90
44170;DHT22;29836;52.286;9.576;2023-02-15T01:57:35;1.40;99.90
44170;DHT22;29836;52.286;9.576;2023-02-15T02:00:06;1.30;99.90
44170;DHT22;29836;52.286;9.576;2023-02-15T02:02:32;1.20;99.90
44170;DHT22;29836;52.286;9.576;2023-02-15T02:05:02;1.30;99.90
44170;DHT22;29836;52.286;9.576;2023-02-15T02:07:34;1.50;99.90
44170;DHT22;29836;52.286;9.576;2023-02-15T02:10:03;2.10;99.90
44170;DHT22;29836;52.286;9.576;2023-02-15T02:12:29;2.20;99.90
44170;DHT22;29836;52.286;9.576;2023-02-15T02:14:55;2.00;99.90
44170;DHT22;29836;52.286;9.576;2023-02-15T02:23:08;1.20;99.90
44170;DHT22;29836;52.286;9.576;2023-02-15T02:28:45;0.80;99.90
44170;DHT22;29836;52.286;9.576;2023-02-15T02:34:28;0.80;99.90
44170;DHT22;29836;52.286;9.576;2023-02-15T02:37:26;0.90;99.90
44170;DHT22;29836;52.286;9.576;2023-02-15T02:40:13;1.10;99.90
44170;DHT22;29836;52.286;9.576;2023-02-15T02:42:46;1.50;99.90
44170;DHT22;29836;52.286;9.576;2023-02-15T02:45:28;1.70;99.90
44170;DHT22;29836;52.286;9.576;2023-02-15T02:48:02;1.90;99.90
44170;DHT22;29836;52.286;9.576;2023-02-15T02:50:29;2.00;99.90
44170;DHT22;29836;52.286;9.576;2023-02-15T02:52:57;2.10;99.90
44170;DHT22;29836;52.286;9.576;2023-02-15T02:55:54;1.90;99.90
44170;DHT22;29836;52.286;9.576;2023-02-15T02:58:29;1.70;99.90
44170;DHT22;29836;52.286;9.576;2023-02-15T03:01:03;1.40;99.90
44170;DHT22;29836;52.286;9.576;2023-02-15T03:03:49;1.20;99.90
44170;DHT22;29836;52.286;9.576;2023-02-15T03:06:19;1.00;99.90
44170;DHT22;29836;52.286;9.576;2023-02-15T03:08:49;0.80;99.90
44170;DHT22;29836;52.286;9.576;2023-02-15T03:11:16;0.80;99.90
44170;DHT22;29836;52.286;9.576;2023-02-15T03:13:43;0.80;99.90
44170;DHT22;29836;52.286;9.576;2023-02-15T03:16:10;0.70;99.90
44170;DHT22;29836;52.286;9.576;2023-02-15T03:19:08;0.50;99.90
44170;DHT22;29836;52.286;9.576;2023-02-15T03:21:51;0.40;99.90
44170;DHT22;29836;52.286;9.576;2023-02-15T03:24:44;0.30;99.90
44170;DHT22;29836;52.286;9.576;2023-02-15T03:27:17;0.20;99.90
44170;DHT22;29836;52.286;9.576;2023-02-15T03:29:47;0.10;99.90
44170;DHT22;29836;52.286;9.576;2023-02-15T03:32:14;0.10;99.90
44170;DHT22;29836;52.286;9.576;2023-02-15T03:34:41;0.10;99.90
44170;DHT22;29836;52.286;9.576;2023-02-15T03:39:45;-0.10;99.90
44170;DHT22;29836;52.286;9.576;2023-02-15T03:42:29;-0.10;99.90
44170;DHT22;29836;52.286;9.576;2023-02-15T03:45:06;-0.20;99.90
44170;DHT22;29836;52.286;9.576;2023-02-15T03:47:37;-0.30;99.90
44170;DHT22;29836;52.286;9.576;2023-02-15T03:50:06;-0.30;99.90
44170;DHT22;29836;52.286;9.576;2023-02-15T03:52:55;-0.30;99.90
44170;DHT22;29836;52.286;9.576;2023-02-15T03:55:23;-0.20;99.90
44170;DHT22;29836;52.286;9.576;2023-02-15T03:57:49;-0.40;99.90
44170;DHT22;29836;52.286;9.576;2023-02-15T04:00:36;-0.50;99.90
44170;DHT22;29836;52.286;9.576;2023-02-15T04:04:01;-0.60;99.90
44170;DHT22;29836;52.286;9.576;2023-02-15T04:06:28;-0.70;99.90
44170;DHT22;29836;52.286;9.576;2023-02-15T04:08:53;-0.80;99.90
44170;DHT22;29836;52.286;9.576;2023-02-15T04:11:37;-0.80;99.90
44170;DHT22;29836;52.286;9.576;2023-02-15T04:14:03;-0.80;99.90
44170;DHT22;29836;52.286;9.576;2023-02-15T04:16:48;-0.80;99.90
44170;DHT22;29836;52.286;9.576;2023-02-15T04:19:14;-0.70;99.90
44170;DHT22;29836;52.286;9.576;2023-02-15T04:21:58;-0.60;99.90
44170;DHT22;29836;52.286;9.576;2023-02-15T04:24:42;-0.60;99.90
44170;DHT22;29836;52.286;9.576;2023-02-15T04:27:26;-0.60;99.90
44170;DHT22;29836;52.286;9.576;2023-02-15T04:29:51;-0.40;99.90
44170;DHT22;29836;52.286;9.576;2023-02-15T04:32:17;-0.20;99.90
44170;DHT22;29836;52.286;9.576;2023-02-15T04:34:42;-0.20;99.90
44170;DHT22;29836;52.286;9.576;2023-02-15T04:37:08;-0.20;99.90
44170;DHT22;29836;52.286;9.576;2023-02-15T04:39:33;-0.30;99.90
44170;DHT22;29836;52.286;9.576;2023-02-15T04:41:59;-0.40;99.90
44170;DHT22;29836;52.286;9.576;2023-02-15T04:44:24;-0.40;99.90
44170;DHT22;29836;52.286;9.576;2023-02-15T04:46:50;-0.40;99.90
44170;DHT22;29836;52.286;9.576;2023-02-15T04:49:15;-0.40;99.90
44170;DHT22;29836;52.286;9.576;2023-02-15T04:51:40;-0.30;99.90
44170;DHT22;29836;52.286;9.576;2023-02-15T04:54:06;-0.30;99.90
44170;DHT22;29836;52.286;9.576;2023-02-15T04:56:31;-0.30;99.90
44170;DHT22;29836;52.286;9.576;2023-02-15T04:58:59;-0.30;99.90
44170;DHT22;29836;52.286;9.576;2023-02-15T05:01:24;-0.20;99.90
44170;DHT22;29836;52.286;9.576;2023-02-15T05:03:50;-0.10;99.90
44170;DHT22;29836;52.286;9.576;2023-02-15T05:06:15;-0.10;99.90
44170;DHT22;29836;52.286;9.576;2023-02-15T05:08:40;-0.20;99.90
44170;DHT22;29836;52.286;9.576;2023-02-15T05:11:06;-0.20;99.90
44170;DHT22;29836;52.286;9.576;2023-02-15T05:13:31;-0.10;99.90
44170;DHT22;29836;52.286;9.576;2023-02-15T05:15:57;-0.20;99.90
44170;DHT22;29836;52.286;9.576;2023-02-15T05:18:22;-0.20;99.90
44170;DHT22;29836;52.286;9.576;2023-02-15T05:20:49;-0.20;99.90
44170;DHT22;29836;52.286;9.576;2023-02-15T05:23:15;-0.30;99.90
44170;DHT22;29836;52.286;9.576;2023-02-15T05:25:40;-0.40;99.90
44170;DHT22;29836;52.286;9.576;2023-02-15T05:28:26;-0.50;99.90
44170;DHT22;29836;52.286;9.576;2023-02-15T05:31:16;-0.50;99.90
44170;DHT22;29836;52.286;9.576;2023-02-15T05:33:42;-0.60;99.90
44170;DHT22;29836;52.286;9.576;2023-02-15T05:36:08;-0.60;99.90
44170;DHT22;29836;52.286;9.576;2023-02-15T05:38:34;-0.70;99.90
44170;DHT22;29836;52.286;9.576;2023-02-15T05:41:03;-0.70;99.90
44170;DHT22;29836;52.286;9.576;2023-02-15T05:43:29;-0.80;99.90
44170;DHT22;29836;52.286;9.576;2023-02-15T05:45:55;-0.90;99.90
44170;DHT22;29836;52.286;9.576;2023-02-15T05:48:23;-1.00;99.90
44170;DHT22;29836;52.286;9.576;2023-02-15T05:51:02;-1.00;99.90
44170;DHT22;29836;52.286;9.576;2023-02-15T05:53:29;-1.00;99.90
44170;DHT22;29836;52.286;9.576;2023-02-15T05:55:55;-0.90;99.90
44170;DHT22;29836;52.286;9.576;2023-02-15T05:58:28;-1.00;99.90
44170;DHT22;29836;52.286;9.576;2023-02-15T06:00:54;-1.10;99.90
44170;DHT22;29836;52.286;9.576;2023-02-15T06:03:20;-1.20;99.90
44170;DHT22;29836;52.286;9.576;2023-02-15T06:05:46;-1.30;99.90
44170;DHT22;29836;52.286;9.576;2023-02-15T06:08:11;-1.40;99.90
44170;DHT22;29836;52.286;9.576;2023-02-15T06:10:37;-1.20;99.90
44170;DHT22;29836;52.286;9.576;2023-02-15T06:13:03;-1.10;99.90
44170;DHT22;29836;52.286;9.576;2023-02-15T06:15:28;-1.10;99.90
44170;DHT22;29836;52.286;9.576;2023-02-15T06:17:54;-1.10;99.90
44170;DHT22;29836;52.286;9.576;2023-02-15T06:20:19;-1.20;99.90
44170;DHT22;29836;52.286;9.576;2023-02-15T06:22:44;-1.30;99.90
44170;DHT22;29836;52.286;9.576;2023-02-15T06:25:11;-1.30;99.90
44170;DHT22;29836;52.286;9.576;2023-02-15T06:27:37;-1.40;99.90
44170;DHT22;29836;52.286;9.576;2023-02-15T06:30:04;-1.40;99.90
44170;DHT22;29836;52.286;9.576;2023-02-15T06:32:31;-1.50;99.90
44170;DHT22;29836;52.286;9.576;2023-02-15T06:34:56;-1.60;99.90
44170;DHT22;29836;52.286;9.576;2023-02-15T06:37:22;-1.50;99.90
44170;DHT22;29836;52.286;9.576;2023-02-15T06:39:47;-1.60;99.90
44170;DHT22;29836;52.286;9.576;2023-02-15T06:42:13;-1.50;99.90
44170;DHT22;29836;52.286;9.576;2023-02-15T06:44:38;-1.50;99.90
44170;DHT22;29836;52.286;9.576;2023-02-15T06:47:04;-1.40;99.90
44170;DHT22;29836;52.286;9.576;2023-02-15T06:49:29;-1.20;99.90
44170;DHT22;29836;52.286;9.576;2023-02-15T06:51:55;-1.10;99.90
44170;DHT22;29836;52.286;9.576;2023-02-15T06:54:20;-1.00;99.90
44170;DHT22;29836;52.286;9.576;2023-02-15T06:56:46;-0.80;99.90
44170;DHT22;29836;52.286;9.576;2023-02-15T06:59:11;-0.50;99.90
44170;DHT22;29836;52.286;9.576;2023-02-15T07:01:37;-0.10;99.90
44170;DHT22;29836;52.286;9.576;2023-02-15T07:04:03;0.30;99.90
44170;DHT22;29836;52.286;9.576;2023-02-15T07:06:32;0.60;99.90
44170;DHT22;29836;52.286;9.576;2023-02-15T07:08:58;1.00;99.90
44170;DHT22;29836;52.286;9.576;2023-02-15T07:11:24;1.30;99.90
44170;DHT22;29836;52.286;9.576;2023-02-15T07:14:08;1.80;99.90
44170;DHT22;29836;52.286;9.576;2023-02-15T07:16:33;2.10;99.90
44170;DHT22;29836;52.286;9.576;2023-02-15T07:18:58;2.20;99.90
44170;DHT22;29836;52.286;9.576;2023-02-15T07:21:24;2.20;99.90
44170;DHT22;29836;52.286;9.576;2023-02-15T07:23:49;2.10;99.90
44170;DHT22;29836;52.286;9.576;2023-02-15T07:26:15;1.90;99.90
44170;DHT22;29836;52.286;9.576;2023-02-15T07:28:41;1.80;99.90
44170;DHT22;29836;52.286;9.576;2023-02-15T07:31:06;2.20;99.90
44170;DHT22;29836;52.286;9.576;2023-02-15T07:33:32;2.70;99.90
44170;DHT22;29836;52.286;9.576;2023-02-15T07:36:00;2.90;99.90
44170;DHT22;29836;52.286;9.576;2023-02-15T07:38:31;3.10;99.90
44170;DHT22;29836;52.286;9.576;2023-02-15T07:41:05;3.00;99.90
44170;DHT22;29836;52.286;9.576;2023-02-15T07:43:34;2.80;99.90
44170;DHT22;29836;52.286;9.576;2023-02-15T07:46:00;2.70;99.90
44170;DHT22;29836;52.286;9.576;2023-02-15T07:48:26;3.00;99.90
44170;DHT22;29836;52.286;9.576;2023-02-15T07:50:52;2.80;99.90
44170;DHT22;29836;52.286;9.576;2023-02-15T07:53:18;2.70;99.90
44170;DHT22;29836;52.286;9.576;2023-02-15T07:55:43;2.70;99.90
44170;DHT22;29836;52.286;9.576;2023-02-15T07:58:09;2.80;99.90
44170;DHT22;29836;52.286;9.576;2023-02-15T08:00:34;2.60;99.90
44170;DHT22;29836;52.286;9.576;2023-02-15T08:03:23;2.50;99.90
44170;DHT22;29836;52.286;9.576;2023-02-15T08:05:49;2.60;99.90
44170;DHT22;29836;52.286;9.576;2023-02-15T08:08:15;2.50;99.90
44170;DHT22;29836;52.286;9.576;2023-02-15T08:11:15;2.60;99.90
44170;DHT22;29836;52.286;9.576;2023-02-15T08:14:19;3.90;99.90
44170;DHT22;29836;52.286;9.576;2023-02-15T08:16:50;6.00;99.90
44170;DHT22;29836;52.286;9.576;2023-02-15T08:21:51;8.60;99.90
44170;DHT22;29836;52.286;9.576;2023-02-15T08:24:19;8.80;99.90
44170;DHT22;29836;52.286;9.576;2023-02-15T08:26:45;8.90;99.90
44170;DHT22;29836;52.286;9.576;2023-02-15T08:29:12;9.60;99.90
44170;DHT22;29836;52.286;9.576;2023-02-15T08:31:38;10.10;99.90
44170;DHT22;29836;52.286;9.576;2023-02-15T08:34:06;11.80;97.90
44170;DHT22;29836;52.286;9.576;2023-02-15T08:36:32;12.50;95.10
44170;DHT22;29836;52.286;9.576;2023-02-15T08:38:59;12.70;91.10
44170;DHT22;29836;52.286;9.576;2023-02-15T08:41:27;12.20;91.10
44170;DHT22;29836;52.286;9.576;2023-02-15T08:43:55;11.80;91.90
44170;DHT22;29836;52.286;9.576;2023-02-15T08:46:23;11.60;92.40
44170;DHT22;29836;52.286;9.576;2023-02-15T08:48:49;11.90;92.50
44170;DHT22;29836;52.286;9.576;2023-02-15T08:51:20;12.10;93.20
44170;DHT22;29836;52.286;9.576;2023-02-15T08:53:50;12.70;93.00
44170;DHT22;29836;52.286;9.576;2023-02-15T08:56:17;13.70;90.40
44170;DHT22;29836;52.286;9.576;2023-02-15T08:58:43;14.80;85.40
44170;DHT22;29836;52.286;9.576;2023-02-15T09:01:14;15.20;80.20
44170;DHT22;29836;52.286;9.576;2023-02-15T09:03:43;14.80;76.80
44170;DHT22;29836;52.286;9.576;2023-02-15T09:06:09;14.30;78.30
44170;DHT22;29836;52.286;9.576;2023-02-15T09:08:34;14.00;78.80
44170;DHT22;29836;52.286;9.576;2023-02-15T09:11:14;14.10;80.10
44170;DHT22;29836;52.286;9.576;2023-02-15T09:13:47;14.00;82.50
44170;DHT22;29836;52.286;9.576;2023-02-15T09:16:13;14.40;79.70
44170;DHT22;29836;52.286;9.576;2023-02-15T09:18:39;14.80;78.30
44170;DHT22;29836;52.286;9.576;2023-02-15T09:21:06;15.20;75.90
44170;DHT22;29836;52.286;9.576;2023-02-15T09:23:32;16.10;72.40
44170;DHT22;29836;52.286;9.576;2023-02-15T09:26:03;15.70;74.10
44170;DHT22;29836;52.286;9.576;2023-02-15T09:28:28;16.40;72.10
44170;DHT22;29836;52.286;9.576;2023-02-15T09:30:54;17.50;70.90
44170;DHT22;29836;52.286;9.576;2023-02-15T09:33:20;18.80;66.50
44170;DHT22;29836;52.286;9.576;2023-02-15T09:35:47;18.50;61.90
44170;DHT22;29836;52.286;9.576;2023-02-15T09:38:12;17.70;63.20
44170;DHT22;29836;52.286;9.576;2023-02-15T09:40:49;18.20;63.60
44170;DHT22;29836;52.286;9.576;2023-02-15T09:43:34;18.50;62.50
44170;DHT22;29836;52.286;9.576;2023-02-15T09:46:21;19.20;60.20
44170;DHT22;29836;52.286;9.576;2023-02-15T09:49:01;19.80;58.70
44170;DHT22;29836;52.286;9.576;2023-02-15T09:51:50;20.80;54.20
44170;DHT22;29836;52.286;9.576;2023-02-15T09:54:25;21.00;56.10
44170;DHT22;29836;52.286;9.576;2023-02-15T09:57:04;20.90;54.60
44170;DHT22;29836;52.286;9.576;2023-02-15T10:00:02;20.70;54.80
44170;DHT22;29836;52.286;9.576;2023-02-15T10:02:56;20.90;55.00
44170;DHT22;29836;52.286;9.576;2023-02-15T10:05:37;20.30;56.30
44170;DHT22;29836;52.286;9.576;2023-02-15T10:11:07;20.40;56.10
44170;DHT22;29836;52.286;9.576;2023-02-15T10:17:11;20.10;54.50
44170;DHT22;29836;52.286;9.576;2023-02-15T10:25:49;19.30;57.40
44170;DHT22;29836;52.286;9.576;2023-02-15T10:28:23;19.30;57.10
44170;DHT22;29836;52.286;9.576;2023-02-15T10:31:11;19.50;55.40
44170;DHT22;29836;52.286;9.576;2023-02-15T10:33:39;19.60;56.20
44170;DHT22;29836;52.286;9.576;2023-02-15T10:36:17;18.90;56.90
44170;DHT22;29836;52.286;9.576;2023-02-15T10:39:02;18.60;58.50
44170;DHT22;29836;52.286;9.576;2023-02-15T10:41:37;17.70;58.40
44170;DHT22;29836;52.286;9.576;2023-02-15T10:50:13;17.20;61.10
44170;DHT22;29836;52.286;9.576;2023-02-15T10:52:51;18.00;58.10
44170;DHT22;29836;52.286;9.576;2023-02-15T10:55:29;16.80;62.50
44170;DHT22;29836;52.286;9.576;2023-02-15T11:01:12;16.40;61.80
44170;DHT22;29836;52.286;9.576;2023-02-15T11:04:04;16.20;65.90
44170;DHT22;29836;52.286;9.576;2023-02-15T11:06:34;16.00;64.20
44170;DHT22;29836;52.286;9.576;2023-02-15T11:09:03;15.80;63.30
44170;DHT22;29836;52.286;9.576;2023-02-15T11:11:37;15.40;64.20
44170;DHT22;29836;52.286;9.576;2023-02-15T11:14:56;14.10;72.20
44170;DHT22;29836;52.286;9.576;2023-02-15T11:17:01;12.70;75.20
44170;DHT22;29836;52.286;9.576;2023-02-15T11:19:35;11.50;82.80
44170;DHT22;29836;52.286;9.576;2023-02-15T11:22:04;10.80;91.70
44170;DHT22;29836;52.286;9.576;2023-02-15T11:24:43;10.30;91.10
44170;DHT22;29836;52.286;9.576;2023-02-15T11:27:21;9.80;94.60
44170;DHT22;29836;52.286;9.576;2023-02-15T11:30:05;9.70;99.90
44170;DHT22;29836;52.286;9.576;2023-02-15T11:32:40;9.50;97.10
44170;DHT22;29836;52.286;9.576;2023-02-15T11:35:31;9.50;99.90
44170;DHT22;29836;52.286;9.576;2023-02-15T11:38:17;9.50;99.90
44170;DHT22;29836;52.286;9.576;2023-02-15T11:40:47;9.40;98.90
44170;DHT22;29836;52.286;9.576;2023-02-15T11:43:33;9.30;99.40
44170;DHT22;29836;52.286;9.576;2023-02-15T11:46:01;9.20;99.90
44170;DHT22;29836;52.286;9.576;2023-02-15T11:48:30;9.10;99.90
44170;DHT22;29836;52.286;9.576;2023-02-15T11:50:56;9.10;99.90
44170;DHT22;29836;52.286;9.576;2023-02-15T11:53:22;9.00;99.90
44170;DHT22;29836;52.286;9.576;2023-02-15T11:55:53;8.90;99.90
44170;DHT22;29836;52.286;9.576;2023-02-15T11:58:44;8.90;99.90
44170;DHT22;29836;52.286;9.576;2023-02-15T12:01:24;9.00;99.90
44170;DHT22;29836;52.286;9.576;2023-02-15T12:04:20;9.00;99.90
44170;DHT22;29836;52.286;9.576;2023-02-15T12:07:33;9.00;99.90
44170;DHT22;29836;52.286;9.576;2023-02-15T12:12:39;8.90;99.90
44170;DHT22;29836;52.286;9.576;2023-02-15T12:15:07;8.90;99.90
44170;DHT22;29836;52.286;9.576;2023-02-15T12:17:38;8.90;99.90
44170;DHT22;29836;52.286;9.576;2023-02-15T12:20:25;8.90;99.90
44170;DHT22;29836;52.286;9.576;2023-02-15T12:22:54;8.80;99.90
44170;DHT22;29836;52.286;9.576;2023-02-15T12:25:36;8.80;99.90
44170;DHT22;29836;52.286;9.576;2023-02-15T12:28:03;8.80;99.90
44170;DHT22;29836;52.286;9.576;2023-02-15T12:30:32;8.90;99.90
44170;DHT22;29836;52.286;9.576;2023-02-15T12:33:17;8.90;99.90
44170;DHT22;29836;52.286;9.576;2023-02-15T12:35:44;9.00;99.90
44170;DHT22;29836;52.286;9.576;2023-02-15T12:40:39;8.90;99.90
44170;DHT22;29836;52.286;9.576;2023-02-15T12:43:34;8.90;99.90
44170;DHT22;29836;52.286;9.576;2023-02-15T12:46:24;8.90;99.90
44170;DHT22;29836;52.286;9.576;2023-02-15T12:49:19;9.00;99.90
44170;DHT22;29836;52.286;9.576;2023-02-15T12:51:53;9.00;99.90
44170;DHT22;29836;52.286;9.576;2023-02-15T12:54:26;9.00;99.90
44170;DHT22;29836;52.286;9.576;2023-02-15T12:56:53;8.90;99.90
44170;DHT22;29836;52.286;9.576;2023-02-15T12:59:18;8.90;99.90
44170;DHT22;29836;52.286;9.576;2023-02-15T13:01:48;8.90;99.90
44170;DHT22;29836;52.286;9.576;2023-02-15T13:06:49;9.00;99.90
44170;DHT22;29836;52.286;9.576;2023-02-15T13:09:37;9.00;99.90
44170;DHT22;29836;52.286;9.576;2023-02-15T13:12:20;8.90;99.90
44170;DHT22;29836;52.286;9.576;2023-02-15T13:14:48;9.00;99.90
44170;DHT22;29836;52.286;9.576;2023-02-15T13:17:19;9.00;99.90
44170;DHT22;29836;52.286;9.576;2023-02-15T13:19:48;8.90;99.90
44170;DHT22;29836;52.286;9.576;2023-02-15T13:22:25;8.90;99.90
44170;DHT22;29836;52.286;9.576;2023-02-15T13:24:56;8.80;99.90
44170;DHT22;29836;52.286;9.576;2023-02-15T13:27:31;8.70;99.90
44170;DHT22;29836;52.286;9.576;2023-02-15T13:30:02;8.70;99.90
44170;DHT22;29836;52.286;9.576;2023-02-15T13:32:37;8.60;99.90
44170;DHT22;29836;52.286;9.576;2023-02-15T13:35:04;8.50;99.90
44170;DHT22;29836;52.286;9.576;2023-02-15T13:37:40;8.50;99.90
44170;DHT22;29836;52.286;9.576;2023-02-15T13:42:55;8.50;99.90
44170;DHT22;29836;52.286;9.576;2023-02-15T13:51:21;8.60;99.90
44170;DHT22;29836;52.286;9.576;2023-02-15T13:54:02;8.60;99.90
44170;DHT22;29836;52.286;9.576;2023-02-15T13:59:54;8.60;99.90
44170;DHT22;29836;52.286;9.576;2023-02-15T14:02:43;8.80;99.90
44170;DHT22;29836;52.286;9.576;2023-02-15T14:10:38;8.50;99.90
44170;DHT22;29836;52.286;9.576;2023-02-15T14:13:42;8.40;99.90
44170;DHT22;29836;52.286;9.576;2023-02-15T14:19:38;8.50;99.90
44170;DHT22;29836;52.286;9.576;2023-02-15T14:27:43;8.90;99.90
44170;DHT22;29836;52.286;9.576;2023-02-15T14:30:22;8.90;99.90
44170;DHT22;29836;52.286;9.576;2023-02-15T14:32:53;8.90;99.90
44170;DHT22;29836;52.286;9.576;2023-02-15T14:35:22;9.00;99.90
44170;DHT22;29836;52.286;9.576;2023-02-15T14:37:58;9.00;99.90
44170;DHT22;29836;52.286;9.576;2023-02-15T14:40:50;9.10;99.90
44170;DHT22;29836;52.286;9.576;2023-02-15T14:46:38;8.90;99.90
44170;DHT22;29836;52.286;9.576;2023-02-15T14:49:16;8.80;99.90
44170;DHT22;29836;52.286;9.576;2023-02-15T14:54:10;8.70;99.90
44170;DHT22;29836;52.286;9.576;2023-02-15T14:56:36;8.70;99.90
44170;DHT22;29836;52.286;9.576;2023-02-15T14:59:15;8.70;99.90
44170;DHT22;29836;52.286;9.576;2023-02-15T15:01:42;8.80;99.90
44170;DHT22;29836;52.286;9.576;2023-02-15T15:04:13;8.80;99.90
44170;DHT22;29836;52.286;9.576;2023-02-15T15:06:42;8.70;99.90
44170;DHT22;29836;52.286;9.576;2023-02-15T15:09:28;8.60;99.90
44170;DHT22;29836;52.286;9.576;2023-02-15T15:12:57;8.60;99.90
44170;DHT22;29836;52.286;9.576;2023-02-15T15:14:58;8.60;99.90
44170;DHT22;29836;52.286;9.576;2023-02-15T15:20:01;8.50;99.90
44170;DHT22;29836;52.286;9.576;2023-02-15T15:22:29;8.40;99.90
44170;DHT22;29836;52.286;9.576;2023-02-15T15:24:59;8.30;99.90
44170;DHT22;29836;52.286;9.576;2023-02-15T15:35:33;8.20;99.90
44170;DHT22;29836;52.286;9.576;2023-02-15T15:42:00;8.00;99.90
44170;DHT22;29836;52.286;9.576;2023-02-15T15:47:06;7.90;99.90
44170;DHT22;29836;52.286;9.576;2023-02-15T15:49:37;7.80;99.90
44170;DHT22;29836;52.286;9.576;2023-02-15T15:52:14;7.70;99.90
44170;DHT22;29836;52.286;9.576;2023-02-15T15:54:42;7.80;99.90
44170;DHT22;29836;52.286;9.576;2023-02-15T15:57:33;7.70;99.90
44170;DHT22;29836;52.286;9.576;2023-02-15T16:00:00;7.60;99.90
44170;DHT22;29836;52.286;9.576;2023-02-15T16:02:27;7.70;99.90
44170;DHT22;29836;52.286;9.576;2023-02-15T16:04:53;7.60;99.90
44170;DHT22;29836;52.286;9.576;2023-02-15T16:10:02;7.30;99.90
44170;DHT22;29836;52.286;9.576;2023-02-15T16:12:30;7.20;99.90
44170;DHT22;29836;52.286;9.576;2023-02-15T16:14:56;7.10;99.90
44170;DHT22;29836;52.286;9.576;2023-02-15T16:17:24;7.00;99.90
44170;DHT22;29836;52.286;9.576;2023-02-15T16:19:51;6.90;99.90
44170;DHT22;29836;52.286;9.576;2023-02-15T16:22:24;6.90;99.90
44170;DHT22;29836;52.286;9.576;2023-02-15T16:24:55;6.80;99.90
44170;DHT22;29836;52.286;9.576;2023-02-15T16:27:41;6.70;99.90
44170;DHT22;29836;52.286;9.576;2023-02-15T16:30:30;6.50;99.90
44170;DHT22;29836;52.286;9.576;2023-02-15T16:33:08;6.40;99.90
44170;DHT22;29836;52.286;9.576;2023-02-15T16:35:36;6.20;99.90
44170;DHT22;29836;52.286;9.576;2023-02-15T16:38:02;6.20;99.90
44170;DHT22;29836;52.286;9.576;2023-02-15T16:40:52;6.10;99.90
44170;DHT22;29836;52.286;9.576;2023-02-15T16:43:25;6.00;99.90
44170;DHT22;29836;52.286;9.576;2023-02-15T16:45:55;6.00;99.90
44170;DHT22;29836;52.286;9.576;2023-02-15T16:48:25;6.00;99.90
44170;DHT22;29836;52.286;9.576;2023-02-15T16:50:56;6.00;99.90
44170;DHT22;29836;52.286;9.576;2023-02-15T16:53:26;5.90;99.90
44170;DHT22;29836;52.286;9.576;2023-02-15T16:55:55;5.90;99.90
44170;DHT22;29836;52.286;9.576;2023-02-15T16:58:30;5.80;99.90
44170;DHT22;29836;52.286;9.576;2023-02-15T17:00:59;5.70;99.90
44170;DHT22;29836;52.286;9.576;2023-02-15T17:03:26;5.70;99.90
44170;DHT22;29836;52.286;9.576;2023-02-15T17:05:57;5.60;99.90
44170;DHT22;29836;52.286;9.576;2023-02-15T17:08:41;5.60;99.90
44170;DHT22;29836;52.286;9.576;2023-02-15T17:11:21;5.60;99.90
44170;DHT22;29836;52.286;9.576;2023-02-15T17:16:41;5.50;99.90
44170;DHT22;29836;52.286;9.576;2023-02-15T17:21:48;5.40;99.90
44170;DHT22;29836;52.286;9.576;2023-02-15T17:24:36;5.30;99.90
44170;DHT22;29836;52.286;9.576;2023-02-15T17:27:11;5.30;99.90
44170;DHT22;29836;52.286;9.576;2023-02-15T17:29:41;5.30;99.90
44170;DHT22;29836;52.286;9.576;2023-02-15T17:32:17;5.20;99.90
44170;DHT22;29836;52.286;9.576;2023-02-15T17:34:50;5.20;99.90
44170;DHT22;29836;52.286;9.576;2023-02-15T17:39:53;5.10;99.90
44170;DHT22;29836;52.286;9.576;2023-02-15T17:42:19;5.10;99.90
44170;DHT22;29836;52.286;9.576;2023-02-15T17:44:45;4.90;99.90
44170;DHT22;29836;52.286;9.576;2023-02-15T17:47:16;4.90;99.90
44170;DHT22;29836;52.286;9.576;2023-02-15T17:49:42;4.80;99.90
44170;DHT22;29836;52.286;9.576;2023-02-15T17:52:12;4.80;99.90
44170;DHT22;29836;52.286;9.576;2023-02-15T17:54:38;4.60;99.90
44170;DHT22;29836;52.286;9.576;2023-02-15T17:57:22;4.30;99.90
44170;DHT22;29836;52.286;9.576;2023-02-15T17:59:47;4.10;99.90